createdAt,value
2019-02-20T00:00:16.225Z,7.00
2019-02-20T00:02:47.659Z,7.00
2019-02-20T00:05:18.823Z,7.00
2019-02-20T00:07:50.012Z,7.00
2019-02-20T00:10:21.854Z,7.10
2019-02-20T00:12:53.843Z,7.10
2019-02-20T00:15:27.119Z,7.00
2019-02-20T00:17:59.026Z,7.00
2019-02-20T00:20:29.830Z,7.10
2019-02-20T00:23:01.127Z,7.00
2019-02-20T00:25:33.400Z,7.00
2019-02-20T00:28:05.494Z,7.00
2019-02-20T00:34:23.445Z,6.90
2019-02-20T00:36:56.603Z,6.90
2019-02-20T00:39:29.448Z,6.90
2019-02-20T00:42:01.145Z,6.90
2019-02-20T00:45:21.036Z,7.00
2019-02-20T00:47:49.012Z,7.00
2019-02-20T00:53:51.106Z,6.90
2019-02-20T00:56:24.143Z,6.90
2019-02-20T00:58:55.859Z,6.90
2019-02-20T01:01:28.127Z,6.90
2019-02-20T01:04:18.088Z,6.90
2019-02-20T01:06:48.816Z,7.00
2019-02-20T01:09:34.482Z,6.90
2019-02-20T01:15:10.499Z,6.90
2019-02-20T01:15:11.050Z,6.90
2019-02-20T01:17:43.616Z,6.90
2019-02-20T01:20:18.239Z,6.90
2019-02-20T01:22:59.423Z,6.90
2019-02-20T01:35:10.610Z,7.00
2019-02-20T01:37:43.780Z,6.90
2019-02-20T01:43:40.041Z,7.00
2019-02-20T01:46:11.912Z,6.90
2019-02-20T01:48:43.165Z,6.90
2019-02-20T01:51:13.925Z,6.90
2019-02-20T01:54:31.169Z,6.90
2019-02-20T02:00:54.469Z,6.90
2019-02-20T02:06:46.324Z,6.90
2019-02-20T02:09:28.755Z,6.90
2019-02-20T02:15:34.031Z,7.00
2019-02-20T04:01:52.241Z,6.80
2019-02-20T04:07:36.664Z,6.90
2019-02-20T04:13:33.961Z,6.80
2019-02-20T04:19:14.183Z,6.80
2019-02-20T04:21:57.903Z,6.80
2019-02-20T04:24:56.896Z,6.80
2019-02-20T04:27:30.842Z,6.80
2019-02-20T04:30:02.507Z,6.80
2019-02-20T04:32:33.562Z,6.80
2019-02-20T04:35:05.733Z,6.80
2019-02-20T04:37:36.840Z,6.70
2019-02-20T04:40:07.943Z,6.70
2019-02-20T04:42:38.926Z,6.80
2019-02-20T04:45:09.936Z,6.80
2019-02-20T04:47:42.276Z,6.80
2019-02-20T04:50:13.373Z,6.80
2019-02-20T04:52:44.838Z,6.80
2019-02-20T04:55:16.080Z,6.80
2019-02-20T04:57:46.799Z,6.80
2019-02-20T05:00:17.428Z,6.80
2019-02-20T05:02:48.357Z,6.90
2019-02-20T05:05:20.373Z,6.90
2019-02-20T05:07:51.668Z,6.90
2019-02-20T05:10:22.302Z,6.90
2019-02-20T05:12:52.892Z,6.90
2019-02-20T05:15:23.236Z,6.90
2019-02-20T05:17:54.004Z,6.90
2019-02-20T05:20:25.940Z,6.90
2019-02-20T05:23:00.804Z,6.80
2019-02-20T05:25:31.612Z,6.90
2019-02-20T05:28:02.214Z,6.80
2019-02-20T05:30:33.522Z,6.80
2019-02-20T05:33:04.085Z,6.80
2019-02-20T05:35:35.903Z,6.70
2019-02-20T05:38:06.270Z,6.70
2019-02-20T05:40:36.792Z,6.70
2019-02-20T05:43:07.548Z,6.80
2019-02-20T05:45:38.010Z,6.80
2019-02-20T05:48:08.693Z,6.80
2019-02-20T05:50:39.209Z,6.70
2019-02-20T05:53:09.648Z,6.70
2019-02-20T05:55:40.169Z,6.70
2019-02-20T05:58:11.123Z,6.70
2019-02-20T06:00:41.584Z,6.70
2019-02-20T06:03:12.096Z,6.80
2019-02-20T06:05:42.560Z,6.80
2019-02-20T06:08:13.372Z,6.80
2019-02-20T06:10:43.670Z,6.70
2019-02-20T06:13:14.799Z,6.60
2019-02-20T06:15:45.099Z,6.60
2019-02-20T06:18:15.759Z,6.60
2019-02-20T06:20:46.413Z,6.60
2019-02-20T06:23:17.907Z,6.60
2019-02-20T06:32:09.298Z,6.60
2019-02-20T06:34:40.142Z,6.70
2019-02-20T06:37:11.181Z,6.70
2019-02-20T06:39:45.594Z,6.70
2019-02-20T06:42:16.127Z,6.60
2019-02-20T06:44:46.723Z,6.60
2019-02-20T06:47:17.594Z,6.60
2019-02-20T06:49:50.347Z,6.60
2019-02-20T06:52:20.953Z,6.60
2019-02-20T06:54:54.158Z,6.60
2019-02-20T06:57:24.079Z,6.60
2019-02-20T07:06:44.227Z,6.70
2019-02-20T07:09:26.359Z,6.70
2019-02-20T07:12:21.943Z,6.70
2019-02-20T07:15:29.441Z,6.70
2019-02-20T07:18:09.156Z,6.70
2019-02-20T07:20:57.596Z,6.70
2019-02-20T07:23:42.478Z,6.70
2019-02-20T07:26:32.250Z,6.70
2019-02-20T07:29:21.493Z,6.70
2019-02-20T07:31:57.844Z,6.80
2019-02-20T07:34:31.123Z,6.80
2019-02-20T07:37:06.350Z,6.90
2019-02-20T07:39:37.426Z,7.00
2019-02-20T07:42:11.762Z,6.90
2019-02-20T07:44:43.315Z,6.90
2019-02-20T07:47:15.075Z,6.90
2019-02-20T07:49:50.577Z,7.00
2019-02-20T07:52:21.183Z,7.10
2019-02-20T07:54:53.891Z,7.00
2019-02-20T07:57:28.218Z,7.10
2019-02-20T07:59:59.941Z,7.10
2019-02-20T08:02:30.193Z,7.20
2019-02-20T08:05:00.673Z,7.20
2019-02-20T08:07:31.837Z,7.30
2019-02-20T08:10:02.981Z,7.40
2019-02-20T08:12:36.567Z,7.40
2019-02-20T08:15:10.047Z,7.40
2019-02-20T08:17:41.988Z,7.50
2019-02-20T08:20:13.861Z,7.50
2019-02-20T08:22:44.765Z,7.60
2019-02-20T08:25:22.849Z,7.60
2019-02-20T08:27:49.522Z,7.60
2019-02-20T08:30:20.526Z,7.70
2019-02-20T08:32:51.847Z,7.60
2019-02-20T08:35:23.527Z,7.60
2019-02-20T08:37:53.947Z,7.70
2019-02-20T08:40:24.649Z,7.70
2019-02-20T08:42:55.694Z,7.80
2019-02-20T08:45:31.079Z,7.80
2019-02-20T08:48:02.035Z,8.00
2019-02-20T08:50:32.789Z,8.10
2019-02-20T08:53:03.121Z,8.20
2019-02-20T08:55:39.327Z,8.20
2019-02-20T08:58:12.644Z,8.30
2019-02-20T09:00:45.975Z,8.40
2019-02-20T09:03:17.895Z,8.30
2019-02-20T09:05:48.168Z,8.40
2019-02-20T09:08:19.029Z,8.40
2019-02-20T09:10:49.921Z,8.50
2019-02-20T09:13:20.934Z,8.60
2019-02-20T09:15:52.422Z,8.60
2019-02-20T09:18:27.583Z,8.70
2019-02-20T09:20:58.210Z,8.70
2019-02-20T09:23:29.191Z,8.80
2019-02-20T09:26:00.536Z,8.80
2019-02-20T09:28:31.814Z,8.80
2019-02-20T09:31:04.168Z,9.00
2019-02-20T09:33:37.458Z,9.20
2019-02-20T09:36:08.489Z,9.30
2019-02-20T09:38:40.167Z,9.10
2019-02-20T09:41:11.306Z,9.20
2019-02-20T09:43:42.618Z,9.20
2019-02-20T09:46:13.758Z,9.30
2019-02-20T09:48:44.685Z,9.20
2019-02-20T09:51:15.450Z,9.10
2019-02-20T09:53:46.229Z,9.20
2019-02-20T09:56:18.177Z,9.10
2019-02-20T09:58:49.089Z,9.00
2019-02-20T10:01:19.518Z,9.20
2019-02-20T10:03:50.926Z,9.30
2019-02-20T10:06:22.097Z,9.30
2019-02-20T10:08:54.398Z,9.20
2019-02-20T10:11:27.635Z,9.30
2019-02-20T10:13:59.499Z,9.20
2019-02-20T10:16:30.718Z,9.30
2019-02-20T10:19:01.514Z,9.20
2019-02-20T10:21:32.323Z,9.20
2019-02-20T10:24:05.136Z,9.10
2019-02-20T10:26:36.606Z,9.10
2019-02-20T10:29:09.270Z,9.20
2019-02-20T10:31:40.284Z,9.30
2019-02-20T10:34:11.233Z,9.30
2019-02-20T10:36:42.899Z,9.40
2019-02-20T10:39:14.102Z,9.40
2019-02-20T10:41:46.427Z,9.40
2019-02-20T10:44:20.938Z,9.30
2019-02-20T10:46:52.981Z,9.30
2019-02-20T10:49:25.783Z,9.40
2019-02-20T10:51:58.734Z,9.30
2019-02-20T10:54:29.820Z,9.30
2019-02-20T10:57:01.610Z,9.10
2019-02-20T10:59:32.478Z,9.20
2019-02-20T11:02:04.452Z,9.20
2019-02-20T11:04:35.428Z,9.10
2019-02-20T11:07:07.426Z,9.10
2019-02-20T11:09:39.120Z,9.10
2019-02-20T11:12:12.753Z,9.00
2019-02-20T11:14:44.886Z,9.00
2019-02-20T11:17:16.614Z,9.10
2019-02-20T11:19:50.809Z,9.10
2019-02-20T11:22:22.924Z,9.10
2019-02-20T11:24:53.977Z,9.10
2019-02-20T11:27:24.954Z,8.90
2019-02-20T11:29:58.042Z,9.00
2019-02-20T11:32:30.151Z,9.00
2019-02-20T11:35:02.460Z,9.10
2019-02-20T11:37:37.265Z,9.10
2019-02-20T11:40:11.184Z,9.10
2019-02-20T11:42:43.054Z,9.10
2019-02-20T11:45:16.440Z,9.10
2019-02-20T11:47:49.003Z,9.10
2019-02-20T11:50:21.737Z,9.10
2019-02-20T11:52:53.335Z,9.20
2019-02-20T11:55:24.221Z,9.20
2019-02-20T11:58:00.757Z,9.20
2019-02-20T12:00:28.130Z,9.10
2019-02-20T12:02:58.765Z,9.10
2019-02-20T12:05:29.184Z,9.10
2019-02-20T12:07:59.497Z,9.10
2019-02-20T12:10:30.877Z,9.20
2019-02-20T12:13:01.990Z,9.20
2019-02-20T12:15:33.267Z,9.20
2019-02-20T12:18:03.856Z,9.20
2019-02-20T12:20:35.141Z,9.20
2019-02-20T12:23:05.506Z,9.20
2019-02-20T12:25:37.653Z,9.20
2019-02-20T12:28:09.444Z,9.30
2019-02-20T12:30:41.724Z,9.20
2019-02-20T12:33:14.342Z,9.20
2019-02-20T12:35:45.947Z,9.20
2019-02-20T12:38:16.099Z,9.20
2019-02-20T12:40:47.415Z,9.20
2019-02-20T12:43:18.571Z,9.20
2019-02-20T12:45:51.721Z,9.20
2019-02-20T12:48:22.992Z,9.00
2019-02-20T12:50:54.155Z,9.00
2019-02-20T12:53:25.308Z,9.00
2019-02-20T12:55:56.042Z,9.10
2019-02-20T12:58:27.477Z,9.00
2019-02-20T13:01:00.813Z,8.90
2019-02-20T13:03:32.172Z,8.90
2019-02-20T13:06:32.200Z,8.80
2019-02-20T13:09:32.386Z,8.80
2019-02-20T13:12:03.093Z,8.80
2019-02-20T13:21:15.154Z,8.70
2019-02-20T13:23:45.927Z,8.60
2019-02-20T13:26:17.721Z,8.60
2019-02-20T13:28:50.464Z,8.60
2019-02-20T13:31:21.129Z,8.70
2019-02-20T13:33:51.445Z,8.70
2019-02-20T13:36:22.097Z,8.80
2019-02-20T13:38:54.070Z,8.90
2019-02-20T13:41:24.764Z,8.90
2019-02-20T13:43:55.921Z,8.80
2019-02-20T13:46:27.824Z,8.90
2019-02-20T13:48:58.527Z,8.90
2019-02-20T13:51:29.833Z,8.90
2019-02-20T13:54:01.053Z,8.90
2019-02-20T13:56:31.495Z,9.00
2019-02-20T13:59:03.040Z,9.00
2019-02-20T14:01:35.634Z,9.10
2019-02-20T14:04:07.612Z,9.10
2019-02-20T14:06:42.162Z,9.10
2019-02-20T14:09:15.146Z,9.20
2019-02-20T14:11:46.668Z,9.20
2019-02-20T14:14:17.558Z,9.10
2019-02-20T14:16:49.873Z,9.10
2019-02-20T14:19:20.418Z,9.20
2019-02-20T14:21:51.652Z,9.20
2019-02-20T14:24:23.046Z,9.20
2019-02-20T14:26:54.480Z,9.20
2019-02-20T14:29:26.363Z,9.20
2019-02-20T14:31:58.122Z,9.10
2019-02-20T14:34:34.019Z,9.10
2019-02-20T14:37:04.710Z,9.10
2019-02-20T14:39:37.235Z,9.00
2019-02-20T14:42:09.716Z,9.00
2019-02-20T14:44:40.659Z,9.00
2019-02-20T14:47:12.930Z,9.10
2019-02-20T14:49:43.883Z,9.10
2019-02-20T14:52:18.538Z,9.20
2019-02-20T14:54:49.469Z,9.20
2019-02-20T14:57:21.352Z,9.20
2019-02-20T14:59:53.461Z,9.20
2019-02-20T15:02:29.998Z,9.30
2019-02-20T15:05:05.247Z,9.20
2019-02-20T15:07:46.705Z,9.30
2019-02-20T15:10:23.085Z,9.20
2019-02-20T15:12:54.300Z,9.20
2019-02-20T15:15:25.455Z,9.20
2019-02-20T15:17:58.242Z,9.20
2019-02-20T15:20:29.768Z,9.30
2019-02-20T15:23:00.142Z,9.20
2019-02-20T15:25:31.788Z,9.10
2019-02-20T15:28:04.998Z,9.10
2019-02-20T15:30:36.539Z,9.00
2019-02-20T15:33:08.847Z,8.90
2019-02-20T15:35:39.972Z,8.90
2019-02-20T15:38:11.347Z,8.90
2019-02-20T15:40:54.423Z,8.90
2019-02-20T15:43:26.556Z,8.90
2019-02-20T15:45:57.866Z,8.80
2019-02-20T15:48:28.615Z,8.80
2019-02-20T15:50:59.635Z,8.80
2019-02-20T15:53:30.327Z,8.80
2019-02-20T15:56:02.291Z,8.70
2019-02-20T15:58:43.485Z,8.80
2019-02-20T16:01:15.996Z,8.70
2019-02-20T16:03:47.498Z,8.80
2019-02-20T16:06:18.558Z,8.80
2019-02-20T16:08:50.173Z,8.80
2019-02-20T16:11:20.786Z,8.80
2019-02-20T16:13:53.892Z,8.80
2019-02-20T16:16:40.703Z,8.80
2019-02-20T16:19:12.060Z,8.80
2019-02-20T16:21:42.662Z,8.80
2019-02-20T16:24:15.725Z,8.70
2019-02-20T16:26:47.601Z,8.70
2019-02-20T16:29:19.738Z,8.70
2019-02-20T16:31:51.619Z,8.70
2019-02-20T16:34:22.032Z,8.70
2019-02-20T16:36:52.970Z,8.70
2019-02-20T16:39:25.161Z,8.70
2019-02-20T16:41:56.642Z,8.60
2019-02-20T16:44:27.605Z,8.60
2019-02-20T16:46:58.206Z,8.60
2019-02-20T16:49:28.591Z,8.70
2019-02-20T16:51:58.917Z,8.70
2019-02-20T16:54:29.702Z,8.70
2019-02-20T16:57:00.553Z,8.70
2019-02-20T16:59:31.814Z,8.70
2019-02-20T17:02:03.634Z,8.60
2019-02-20T17:04:34.678Z,8.60
2019-02-20T17:07:06.325Z,8.70
2019-02-20T17:09:37.694Z,8.70
2019-02-20T17:12:10.360Z,8.60
2019-02-20T17:14:42.148Z,8.70
2019-02-20T17:17:12.666Z,8.60
2019-02-20T17:19:44.550Z,8.60
2019-02-20T17:22:15.964Z,8.60
2019-02-20T17:24:47.201Z,8.60
2019-02-20T17:27:21.095Z,8.60
2019-02-20T17:29:52.551Z,8.60
2019-02-20T17:32:25.962Z,8.60
2019-02-20T17:34:58.496Z,8.50
2019-02-20T17:37:29.188Z,8.60
2019-02-20T17:39:59.684Z,8.50
2019-02-20T17:42:31.674Z,8.50
2019-02-20T17:45:05.781Z,8.40
2019-02-20T17:47:37.399Z,8.50
2019-02-20T17:50:28.219Z,8.50
2019-02-20T17:53:01.604Z,8.40
2019-02-20T17:55:33.779Z,8.40
2019-02-20T17:58:14.613Z,8.30
2019-02-20T18:00:39.546Z,8.30
2019-02-20T18:03:10.855Z,8.30
2019-02-20T18:05:42.565Z,8.40
2019-02-20T18:08:13.463Z,8.30
2019-02-20T18:10:44.909Z,8.30
2019-02-20T18:13:15.687Z,8.40
2019-02-20T18:15:47.067Z,8.40
2019-02-20T18:18:19.491Z,8.40
2019-02-20T18:20:52.960Z,8.40
2019-02-20T18:23:24.091Z,8.30
2019-02-20T18:25:55.210Z,8.30
2019-02-20T18:28:27.188Z,8.40
2019-02-20T18:30:58.448Z,8.40
2019-02-20T18:33:30.400Z,8.40
2019-02-20T18:36:01.380Z,8.40
2019-02-20T18:38:33.213Z,8.40
2019-02-20T18:41:04.568Z,8.40
2019-02-20T18:43:35.880Z,8.40
2019-02-20T18:46:06.929Z,8.40
2019-02-20T18:48:38.516Z,8.30
2019-02-20T18:51:10.001Z,8.40
2019-02-20T18:53:41.506Z,8.40
2019-02-20T18:56:13.025Z,8.40
2019-02-20T18:58:44.457Z,8.50
2019-02-20T19:01:15.434Z,8.40
2019-02-20T19:03:46.750Z,8.40
2019-02-20T19:06:17.160Z,8.40
2019-02-20T19:12:08.999Z,8.40
2019-02-20T19:15:02.759Z,8.40
2019-02-20T19:17:55.639Z,8.40
2019-02-20T19:20:35.657Z,8.40
2019-02-20T19:23:18.183Z,8.40
2019-02-20T19:26:12.221Z,8.40
2019-02-20T19:28:59.970Z,8.50
2019-02-20T19:31:54.593Z,8.40
2019-02-20T19:34:40.039Z,8.50
2019-02-20T19:37:29.027Z,8.50
2019-02-20T19:40:02.866Z,8.50
2019-02-20T19:42:52.322Z,8.40
2019-02-20T19:49:00.216Z,8.50
2019-02-20T19:51:55.940Z,8.50
2019-02-20T19:54:33.011Z,8.50
2019-02-20T19:57:39.705Z,8.50
2019-02-20T20:00:13.272Z,8.50
2019-02-20T20:03:00.580Z,8.50
2019-02-20T20:05:45.363Z,8.50
2019-02-20T20:08:56.027Z,8.50
2019-02-20T20:11:30.227Z,8.50
2019-02-20T20:14:13.699Z,8.50
2019-02-20T20:16:53.390Z,8.50
2019-02-20T20:19:40.456Z,8.50
2019-02-20T20:22:22.024Z,8.60
2019-02-20T20:25:09.427Z,8.60
2019-02-20T20:27:49.300Z,8.50
2019-02-20T20:30:29.802Z,8.40
2019-02-20T20:33:20.811Z,8.50
2019-02-20T20:37:32.124Z,8.50
2019-02-20T20:39:17.363Z,8.50
2019-02-20T20:42:23.844Z,8.50
2019-02-20T20:45:27.619Z,8.50
2019-02-20T20:48:11.272Z,8.40
2019-02-20T20:50:58.832Z,8.40
2019-02-20T20:53:52.345Z,8.50
2019-02-20T20:56:28.894Z,8.40
2019-02-20T20:59:17.208Z,8.40
2019-02-20T21:01:49.006Z,8.40
2019-02-20T21:04:52.887Z,8.50
2019-02-20T21:07:44.168Z,8.40
2019-02-20T21:10:20.864Z,8.40
2019-02-20T21:13:04.203Z,8.50
2019-02-20T21:16:15.251Z,8.40
2019-02-20T21:18:49.132Z,8.40
2019-02-20T21:21:26.853Z,8.50
2019-02-20T21:24:03.547Z,8.50
2019-02-20T21:27:06.680Z,8.50
2019-02-20T21:29:49.726Z,8.40
2019-02-20T21:32:32.505Z,8.40
2019-02-20T21:35:23.534Z,8.50
2019-02-20T21:38:13.657Z,8.40
2019-02-20T21:40:54.129Z,8.40
2019-02-20T21:43:41.539Z,8.50
2019-02-20T21:46:33.622Z,8.40
2019-02-20T21:49:14.748Z,8.40
2019-02-20T21:51:48.793Z,8.50
2019-02-20T21:54:31.739Z,8.50
2019-02-20T21:57:15.776Z,8.50
2019-02-20T22:00:06.470Z,8.50
2019-02-20T22:02:52.816Z,8.50
2019-02-20T22:05:45.480Z,8.50
2019-02-20T22:08:42.304Z,8.50
2019-02-20T22:11:39.124Z,8.50
2019-02-20T22:14:30.846Z,8.40
2019-02-20T22:17:35.251Z,8.40
2019-02-20T22:20:21.004Z,8.40
2019-02-20T22:22:58.935Z,8.40
2019-02-20T22:25:36.217Z,8.40
2019-02-20T22:28:25.533Z,8.50
2019-02-20T22:31:15.135Z,8.50
2019-02-20T22:34:06.989Z,8.60
2019-02-20T22:36:57.424Z,8.60
2019-02-20T22:39:36.772Z,8.60
2019-02-20T22:42:19.565Z,8.50
2019-02-20T22:45:05.652Z,8.40
2019-02-20T22:48:02.519Z,8.40
2019-02-20T22:50:54.010Z,8.50
2019-02-20T22:53:44.706Z,8.50
2019-02-20T22:56:34.978Z,8.50
2019-02-20T22:59:43.782Z,8.50
2019-02-20T23:02:51.403Z,8.60
2019-02-20T23:05:43.118Z,8.50
2019-02-20T23:08:34.186Z,8.50
2019-02-20T23:11:14.369Z,8.50
2019-02-20T23:13:51.387Z,8.50
2019-02-20T23:16:24.111Z,8.50
2019-02-20T23:18:57.550Z,8.40
2019-02-20T23:21:30.911Z,8.50
2019-02-20T23:24:03.603Z,8.50
2019-02-20T23:26:38.451Z,8.50
2019-02-20T23:29:09.955Z,8.50
2019-02-20T23:31:41.879Z,8.40
2019-02-20T23:34:12.974Z,8.50
2019-02-20T23:36:45.369Z,8.50
2019-02-20T23:39:17.256Z,8.50
2019-02-20T23:41:48.332Z,8.60
2019-02-20T23:44:18.722Z,8.50
2019-02-20T23:46:50.512Z,8.60
2019-02-20T23:49:21.231Z,8.60
2019-02-20T23:51:54.932Z,8.70
2019-02-20T23:58:17.458Z,8.60
